Time;durP1;ratioP1;P1;durP2;ratioP2;P2;SDS_P1;SDS_P2;PMS_P1;PMS_P2;Temp;Humidity;BMP_temperature;BMP_pressure;BME280_temperature;BME280_humidity;BME280_pressure;Samples;Min_cycle;Max_cycle;Signal;HPM_P1;HPM_P2
2021/08/19 00:02:12;;;;;;;10.82;4.13;;;15.90;99.90;;;;;;5064865;28;20105;-76
2021/08/19 00:04:38;;;;;;;7.72;3.75;;;15.90;99.90;;;;;;5063151;28;20787;-73
2021/08/19 00:07:04;;;;;;;10.25;4.10;;;15.80;99.90;;;;;;5064573;28;20828;-75
2021/08/19 00:09:30;;;;;;;10.20;4.13;;;15.90;99.90;;;;;;5065041;28;20033;-73
2021/08/19 00:11:55;;;;;;;7.57;4.20;;;15.80;99.90;;;;;;5066811;28;20029;-74
2021/08/19 00:14:21;;;;;;;8.80;4.90;;;15.90;99.90;;;;;;5068095;28;20127;-75
2021/08/19 00:16:47;;;;;;;10.32;4.38;;;15.70;99.90;;;;;;5067346;28;20453;-72
2021/08/19 00:19:13;;;;;;;7.10;3.67;;;15.70;99.90;;;;;;5068569;28;20067;-75
2021/08/19 00:21:38;;;;;;;9.82;4.47;;;15.80;99.90;;;;;;5068412;28;20044;-75
2021/08/19 00:24:04;;;;;;;14.77;4.15;;;15.70;99.90;;;;;;5066921;28;20021;-74
2021/08/19 00:26:30;;;;;;;13.05;4.10;;;15.70;99.90;;;;;;5069787;28;20020;-76
2021/08/19 00:28:55;;;;;;;9.55;4.82;;;15.70;99.90;;;;;;5066964;28;20021;-74
2021/08/19 00:31:22;;;;;;;8.32;4.15;;;15.70;99.90;;;;;;5068344;28;20025;-75
2021/08/19 00:33:49;;;;;;;8.23;4.35;;;15.70;99.90;;;;;;5068477;28;20025;-76
2021/08/19 00:36:15;;;;;;;6.63;4.13;;;15.70;99.90;;;;;;5068341;28;20029;-75
2021/08/19 00:38:42;;;;;;;7.78;3.90;;;15.60;99.90;;;;;;5066727;28;20043;-77
2021/08/19 00:41:07;;;;;;;6.22;3.58;;;15.60;99.90;;;;;;5068167;28;20119;-77
2021/08/19 00:43:34;;;;;;;17.95;4.68;;;15.60;99.90;;;;;;5066670;28;20025;-71
2021/08/19 00:46:02;;;;;;;8.05;3.85;;;15.50;99.90;;;;;;5066660;28;20084;-74
2021/08/19 00:48:28;;;;;;;5.43;3.38;;;15.50;99.90;;;;;;5067915;28;20017;-77
2021/08/19 00:50:54;;;;;;;8.75;3.95;;;15.50;99.90;;;;;;5067816;28;20029;-75
2021/08/19 00:53:20;;;;;;;9.30;4.15;;;15.50;99.90;;;;;;5067978;28;20025;-75
2021/08/19 00:55:49;;;;;;;6.97;3.88;;;15.50;99.90;;;;;;5066677;28;20052;-79
2021/08/19 00:58:18;;;;;;;12.50;3.70;;;15.40;99.90;;;;;;5067600;28;20040;-75
2021/08/19 01:00:44;;;;;;;5.55;3.17;;;15.50;99.90;;;;;;5066564;28;20382;-74
2021/08/19 01:03:10;;;;;;;4.57;3.28;;;15.50;99.90;;;;;;5067941;28;20033;-75
2021/08/19 01:05:40;;;;;;;7.35;3.80;;;15.50;99.90;;;;;;5066169;28;20098;-73
2021/08/19 01:08:07;;;;;;;6.93;3.97;;;15.50;99.90;;;;;;5067513;28;20029;-73
2021/08/19 01:10:32;;;;;;;11.10;4.07;;;15.50;99.90;;;;;;5067625;28;20049;-73
2021/08/19 01:12:58;;;;;;;12.48;3.83;;;15.50;99.90;;;;;;5066629;28;20036;-73
2021/08/19 01:15:24;;;;;;;11.82;4.05;;;15.50;99.90;;;;;;5067109;28;20397;-75
2021/08/19 01:17:58;;;;;;;9.82;3.45;;;15.50;99.90;;;;;;5066951;28;20080;-74
2021/08/19 01:20:26;;;;;;;11.18;3.33;;;15.60;99.90;;;;;;5066782;28;20025;-73
2021/08/19 01:22:52;;;;;;;3.92;2.88;;;15.50;99.90;;;;;;5067208;28;20040;-73
2021/08/19 01:25:18;;;;;;;6.32;3.17;;;15.60;99.90;;;;;;5065170;28;20033;-72
2021/08/19 01:27:44;;;;;;;7.03;3.20;;;15.60;99.90;;;;;;5067186;28;20088;-74
2021/08/19 01:30:10;;;;;;;7.95;3.53;;;15.50;99.90;;;;;;5067334;28;20032;-74
2021/08/19 01:32:36;;;;;;;6.72;3.33;;;15.60;99.90;;;;;;5066730;28;20037;-75
2021/08/19 01:35:01;;;;;;;6.03;2.95;;;15.60;99.90;;;;;;5065612;28;20036;-74
2021/08/19 01:37:27;;;;;;;7.45;3.60;;;15.60;99.90;;;;;;5066955;28;20097;-74
2021/08/19 01:39:52;;;;;;;7.50;3.58;;;15.60;99.90;;;;;;5066996;28;20029;-74
2021/08/19 01:42:18;;;;;;;16.83;4.13;;;15.60;99.90;;;;;;5065232;28;20033;-71
2021/08/19 01:44:43;;;;;;;4.90;3.28;;;15.50;99.90;;;;;;5067186;28;20021;-74
2021/08/19 01:47:12;;;;;;;5.43;3.35;;;15.50;99.90;;;;;;5066487;28;20103;-72
2021/08/19 01:49:38;;;;;;;6.20;3.38;;;15.60;99.90;;;;;;5065474;28;20356;-72
2021/08/19 01:52:05;;;;;;;8.63;3.15;;;15.60;99.90;;;;;;5066810;28;20032;-73
2021/08/19 01:54:31;;;;;;;6.13;3.38;;;15.60;99.90;;;;;;5066641;28;20025;-72
2021/08/19 01:56:57;;;;;;;9.98;4.07;;;15.60;99.90;;;;;;5066769;28;20025;-72
2021/08/19 01:59:27;;;;;;;7.70;3.13;;;15.60;99.90;;;;;;5066441;28;20087;-74
2021/08/19 02:01:54;;;;;;;7.93;3.60;;;15.50;99.90;;;;;;5065222;28;20025;-73
2021/08/19 02:04:19;;;;;;;11.82;3.35;;;15.50;99.90;;;;;;5066590;28;20112;-73
2021/08/19 02:06:45;;;;;;;5.47;3.30;;;15.50;99.90;;;;;;5066529;28;20025;-72
2021/08/19 02:09:10;;;;;;;5.80;3.65;;;15.50;99.90;;;;;;5065444;28;20111;-73
2021/08/19 02:11:38;;;;;;;9.48;3.53;;;15.50;99.90;;;;;;5066393;28;20082;-72
2021/08/19 02:14:04;;;;;;;10.90;3.97;;;15.50;99.90;;;;;;5066023;28;20052;-72
2021/08/19 02:16:29;;;;;;;7.38;3.58;;;15.50;99.90;;;;;;5064948;28;20527;-71
2021/08/19 02:18:55;;;;;;;6.57;3.80;;;15.40;99.90;;;;;;5066238;28;20049;-71
2021/08/19 02:21:21;;;;;;;6.10;3.05;;;15.40;99.90;;;;;;5066150;28;20032;-73
2021/08/19 02:23:47;;;;;;;11.07;3.78;;;15.40;99.90;;;;;;5065079;28;20025;-72
2021/08/19 02:26:13;;;;;;;8.60;3.50;;;15.40;99.90;;;;;;5066493;28;20029;-72
2021/08/19 02:28:38;;;;;;;7.57;3.80;;;15.50;99.90;;;;;;5064793;28;20036;-72
2021/08/19 02:31:04;;;;;;;7.82;3.58;;;15.40;99.90;;;;;;5065973;28;20025;-71
2021/08/19 02:33:30;;;;;;;6.88;3.75;;;15.50;99.90;;;;;;5065206;28;20029;-72
2021/08/19 02:35:55;;;;;;;8.90;4.05;;;15.50;99.90;;;;;;5065861;28;20065;-73
2021/08/19 02:38:21;;;;;;;9.10;4.05;;;15.50;99.90;;;;;;5066101;28;20120;-71
2021/08/19 02:40:46;;;;;;;7.43;3.92;;;15.50;99.90;;;;;;5064837;28;20032;-73
2021/08/19 02:43:12;;;;;;;7.45;3.75;;;15.50;99.90;;;;;;5065801;28;20056;-72
2021/08/19 02:45:38;;;;;;;6.18;3.40;;;15.50;99.90;;;;;;5065660;28;20455;-70
2021/08/19 02:48:04;;;;;;;8.07;3.97;;;15.60;99.90;;;;;;5064509;28;20032;-74
2021/08/19 02:50:29;;;;;;;10.52;3.33;;;15.50;99.90;;;;;;5065732;28;20497;-72
2021/08/19 02:52:56;;;;;;;17.67;4.47;;;15.60;99.90;;;;;;5065594;28;20033;-73
2021/08/19 02:55:21;;;;;;;9.25;3.50;;;15.50;99.90;;;;;;5064179;28;20021;-71
2021/08/19 02:57:47;;;;;;;9.35;4.35;;;15.50;99.90;;;;;;5064298;28;20075;-74
2021/08/19 03:00:13;;;;;;;13.05;3.85;;;15.50;99.90;;;;;;5065671;28;20021;-73
2021/08/19 03:02:39;;;;;;;7.13;3.58;;;15.50;99.90;;;;;;5065502;28;20036;-73
2021/08/19 03:05:08;;;;;;;11.88;3.53;;;15.50;99.90;;;;;;5064013;28;20477;-75
2021/08/19 03:07:33;;;;;;;9.95;3.67;;;15.50;99.90;;;;;;5065311;28;20098;-73
2021/08/19 03:09:59;;;;;;;6.93;3.58;;;15.60;99.90;;;;;;5065205;28;20025;-73
2021/08/19 03:12:25;;;;;;;7.57;3.60;;;15.50;99.90;;;;;;5063902;28;20425;-72
2021/08/19 03:14:51;;;;;;;4.47;2.92;;;15.50;99.90;;;;;;5063720;28;20044;-75
2021/08/19 03:17:17;;;;;;;6.43;3.65;;;15.50;99.90;;;;;;5064063;28;20033;-73
2021/08/19 03:19:44;;;;;;;7.05;4.18;;;15.50;99.90;;;;;;5065245;28;20025;-75
2021/08/19 03:22:11;;;;;;;5.68;3.60;;;15.50;99.90;;;;;;5065226;28;20055;-73
2021/08/19 03:24:37;;;;;;;6.88;3.28;;;15.40;99.90;;;;;;5064840;28;20056;-72
2021/08/19 03:27:03;;;;;;;6.82;3.53;;;15.50;99.90;;;;;;5065050;28;20021;-70
2021/08/19 03:29:32;;;;;;;5.93;2.90;;;15.50;99.90;;;;;;5064993;28;20052;-73
2021/08/19 03:31:57;;;;;;;8.70;3.67;;;15.50;99.90;;;;;;5064771;28;20025;-73
2021/08/19 03:34:23;;;;;;;6.38;3.13;;;15.40;99.90;;;;;;5063665;28;20126;-75
2021/08/19 03:36:50;;;;;;;6.20;3.38;;;15.40;99.90;;;;;;5065021;28;20032;-74
2021/08/19 03:39:15;;;;;;;6.15;3.22;;;15.50;99.90;;;;;;5064773;28;20032;-75
2021/08/19 03:41:41;;;;;;;9.23;3.15;;;15.50;99.90;;;;;;5065016;28;20029;-73
2021/08/19 03:44:09;;;;;;;7.85;3.03;;;15.50;99.90;;;;;;5064396;28;20033;-73
2021/08/19 03:46:36;;;;;;;5.35;2.92;;;15.40;99.90;;;;;;5064712;28;20028;-73
2021/08/19 03:49:02;;;;;;;4.90;2.92;;;15.40;99.90;;;;;;5063305;28;20071;-73
2021/08/19 03:51:29;;;;;;;7.43;3.22;;;15.30;99.90;;;;;;5064542;28;20029;-75
2021/08/19 03:53:55;;;;;;;9.43;3.60;;;15.30;99.90;;;;;;5064390;28;20025;-75
2021/08/19 03:56:24;;;;;;;9.30;3.97;;;15.30;99.90;;;;;;5063458;28;20111;-75
2021/08/19 03:58:50;;;;;;;15.65;4.40;;;15.30;99.90;;;;;;5064385;28;20037;-75
2021/08/19 04:01:15;;;;;;;8.07;3.92;;;15.30;99.90;;;;;;5063497;28;20067;-76
2021/08/19 04:03:41;;;;;;;6.97;3.72;;;15.30;99.90;;;;;;5063448;28;20029;-75
2021/08/19 04:06:06;;;;;;;7.13;3.35;;;15.30;99.90;;;;;;5064307;28;20033;-76
2021/08/19 04:08:32;;;;;;;5.32;3.28;;;15.20;99.90;;;;;;5064488;28;20481;-74
2021/08/19 04:10:57;;;;;;;7.75;3.30;;;15.30;99.90;;;;;;5064405;28;20025;-73
2021/08/19 04:13:23;;;;;;;9.07;2.92;;;15.20;99.90;;;;;;5064242;28;20032;-76
2021/08/19 04:15:49;;;;;;;7.82;3.70;;;15.20;99.90;;;;;;5062851;28;20053;-77
2021/08/19 04:18:16;;;;;;;9.93;3.88;;;15.20;99.90;;;;;;5063098;28;20075;-75
2021/08/19 04:20:42;;;;;;;7.45;3.78;;;15.20;99.90;;;;;;5064512;28;20029;-76
2021/08/19 04:23:07;;;;;;;8.23;4.07;;;15.10;99.90;;;;;;5062933;28;20029;-75
2021/08/19 04:25:33;;;;;;;9.25;4.03;;;15.10;99.90;;;;;;5064231;28;20085;-75
2021/08/19 04:27:58;;;;;;;4.90;3.10;;;15.10;99.90;;;;;;5062819;28;20155;-75
2021/08/19 04:30:24;;;;;;;7.13;4.07;;;15.10;99.90;;;;;;5064251;28;20030;-75
2021/08/19 04:32:50;;;;;;;8.93;4.28;;;15.10;99.90;;;;;;5068879;28;20055;-74
2021/08/19 04:35:16;;;;;;;14.20;4.05;;;15.10;99.90;;;;;;5068261;28;20051;-75
2021/08/19 04:37:43;;;;;;;6.55;3.22;;;15.20;99.90;;;;;;5085817;28;20040;-73
2021/08/19 04:40:09;;;;;;;8.65;3.63;;;15.10;99.90;;;;;;5066538;28;20100;-74
2021/08/19 04:42:35;;;;;;;8.35;3.70;;;15.10;99.90;;;;;;5062211;28;20044;-74
2021/08/19 04:45:01;;;;;;;6.55;3.17;;;15.20;99.90;;;;;;5076668;28;20043;-74
2021/08/19 04:47:26;;;;;;;9.35;3.63;;;15.00;99.90;;;;;;5083913;28;20032;-73
2021/08/19 04:49:52;;;;;;;7.18;4.05;;;15.10;99.90;;;;;;5084087;28;20032;-74
2021/08/19 04:52:17;;;;;;;10.77;4.40;;;15.20;99.90;;;;;;5084437;28;20024;-73
2021/08/19 04:54:43;;;;;;;12.82;4.25;;;15.20;99.90;;;;;;5068832;28;20076;-75
2021/08/19 04:57:09;;;;;;;9.25;4.30;;;15.20;99.90;;;;;;5067629;28;20044;-71
2021/08/19 04:59:34;;;;;;;8.05;4.35;;;15.20;99.90;;;;;;5074328;28;20051;-72
2021/08/19 05:02:01;;;;;;;8.40;3.42;;;15.20;99.90;;;;;;5084374;28;20055;-73
2021/08/19 05:04:27;;;;;;;7.35;4.53;;;15.20;99.90;;;;;;5066275;28;20036;-72
2021/08/19 05:06:52;;;;;;;8.07;3.65;;;15.40;99.90;;;;;;5067528;28;20080;-74
2021/08/19 05:09:18;;;;;;;11.73;4.00;;;15.40;99.90;;;;;;5065990;28;20473;-74
2021/08/19 05:11:44;;;;;;;9.07;3.65;;;15.30;99.90;;;;;;5066613;28;20036;-72
2021/08/19 05:14:10;;;;;;;5.70;3.20;;;15.30;99.90;;;;;;5065924;28;20081;-73
2021/08/19 05:16:35;;;;;;;9.57;3.97;;;15.40;99.90;;;;;;5067541;28;20028;-74
2021/08/19 05:19:02;;;;;;;8.98;4.25;;;15.40;99.90;;;;;;5076117;28;20044;-76
2021/08/19 05:21:27;;;;;;;4.50;3.03;;;15.40;99.90;;;;;;5076103;28;20017;-76
2021/08/19 05:23:53;;;;;;;13.60;3.55;;;15.40;99.90;;;;;;5067285;28;20021;-73
2021/08/19 05:26:19;;;;;;;8.07;3.55;;;15.40;99.90;;;;;;5066036;28;20027;-74
2021/08/19 05:28:45;;;;;;;6.85;3.20;;;15.50;99.90;;;;;;5066065;28;20116;-74
2021/08/19 05:31:12;;;;;;;8.70;4.10;;;15.50;99.90;;;;;;5066078;28;20144;-73
2021/08/19 05:33:38;;;;;;;9.45;3.20;;;15.50;99.90;;;;;;5067174;28;20029;-74
2021/08/19 05:36:10;;;;;;;8.75;3.80;;;15.50;99.90;;;;;;5065880;28;20045;-73
2021/08/19 05:38:36;;;;;;;8.80;3.35;;;15.60;99.90;;;;;;5065544;28;20084;-72
2021/08/19 05:41:03;;;;;;;8.63;3.78;;;15.60;99.90;;;;;;5066790;28;20033;-73
2021/08/19 05:43:28;;;;;;;5.90;3.10;;;15.60;99.90;;;;;;5066736;28;20025;-73
2021/08/19 05:45:54;;;;;;;6.57;3.60;;;15.60;99.90;;;;;;5064484;28;20036;-74
2021/08/19 05:48:20;;;;;;;5.20;3.33;;;15.60;99.90;;;;;;5063969;28;20382;-72
2021/08/19 05:50:45;;;;;;;9.57;3.85;;;15.70;99.90;;;;;;5066840;28;20048;-76
2021/08/19 05:53:11;;;;;;;8.13;3.20;;;15.70;99.90;;;;;;5065454;28;20025;-72
2021/08/19 05:55:36;;;;;;;6.65;3.28;;;15.80;99.90;;;;;;5065387;28;20068;-74
2021/08/19 05:58:02;;;;;;;9.20;3.90;;;15.80;99.90;;;;;;5066569;28;21010;-75
2021/08/19 06:00:28;;;;;;;6.38;3.55;;;15.80;99.90;;;;;;5066789;28;20089;-72
2021/08/19 06:02:53;;;;;;;6.75;3.95;;;15.80;99.90;;;;;;5065274;28;20033;-73
2021/08/19 06:05:19;;;;;;;5.30;3.15;;;15.90;99.90;;;;;;5074230;28;20038;-74
2021/08/19 06:07:45;;;;;;;7.63;4.32;;;15.90;99.90;;;;;;5079598;28;20029;-72
2021/08/19 06:10:12;;;;;;;15.13;3.83;;;15.90;99.90;;;;;;5068693;28;20033;-73
2021/08/19 06:12:38;;;;;;;7.78;4.15;;;16.00;99.90;;;;;;5068682;28;20024;-73
2021/08/19 06:15:06;;;;;;;8.48;4.15;;;16.00;99.90;;;;;;5084816;28;20138;-71
2021/08/19 06:17:33;;;;;;;13.95;5.60;;;16.00;99.90;;;;;;5101828;28;20056;-73
2021/08/19 06:19:59;;;;;;;8.45;4.35;;;16.00;99.90;;;;;;5101854;28;20040;-71
2021/08/19 06:22:24;;;;;;;11.43;4.45;;;16.10;99.90;;;;;;5101635;28;20028;-73
2021/08/19 06:24:50;;;;;;;10.48;4.78;;;16.10;99.90;;;;;;5086212;28;20025;-75
2021/08/19 06:27:15;;;;;;;9.93;4.72;;;16.20;99.90;;;;;;5086314;28;20025;-74
2021/08/19 06:29:41;;;;;;;14.48;5.55;;;16.10;99.90;;;;;;5085930;28;20063;-73
2021/08/19 06:32:07;;;;;;;10.85;4.30;;;16.20;99.90;;;;;;5086174;28;20032;-74
2021/08/19 06:34:34;;;;;;;14.15;4.78;;;16.30;99.90;;;;;;5086009;28;20086;-72
2021/08/19 06:37:00;;;;;;;7.70;4.22;;;16.40;99.90;;;;;;5085930;28;20040;-73
2021/08/19 06:39:26;;;;;;;13.63;5.45;;;16.30;99.90;;;;;;5101397;28;20036;-73
2021/08/19 06:41:51;;;;;;;11.30;5.10;;;16.40;99.90;;;;;;5085808;28;20039;-73
2021/08/19 06:44:17;;;;;;;7.45;4.40;;;16.40;99.90;;;;;;5085938;28;20078;-75
2021/08/19 06:46:43;;;;;;;12.95;4.68;;;16.50;99.90;;;;;;5101567;28;20055;-71
2021/08/19 06:49:08;;;;;;;9.48;4.40;;;16.50;99.90;;;;;;5101324;28;20051;-74
2021/08/19 06:51:34;;;;;;;9.57;5.07;;;16.50;99.90;;;;;;5101315;28;20060;-73
2021/08/19 06:53:59;;;;;;;8.88;4.65;;;16.50;99.90;;;;;;5101229;28;20036;-73
2021/08/19 06:56:27;;;;;;;11.07;4.53;;;16.60;99.90;;;;;;5101197;28;20070;-73
2021/08/19 06:58:52;;;;;;;7.50;4.53;;;16.60;99.90;;;;;;5075368;28;20493;-74
2021/08/19 07:01:18;;;;;;;10.93;4.57;;;16.60;99.90;;;;;;5071822;28;20036;-74
2021/08/19 07:03:43;;;;;;;10.93;4.60;;;16.60;99.90;;;;;;5081593;28;20029;-76
2021/08/19 07:06:11;;;;;;;8.90;4.57;;;16.70;99.90;;;;;;5070726;28;20021;-71
2021/08/19 07:08:36;;;;;;;8.52;4.65;;;16.70;99.90;;;;;;5065652;28;20043;-71
2021/08/19 07:11:02;;;;;;;9.60;4.70;;;16.70;99.90;;;;;;5065455;28;20021;-73
2021/08/19 07:13:28;;;;;;;8.32;4.68;;;16.80;99.90;;;;;;5063101;28;20112;-75
2021/08/19 07:15:53;;;;;;;10.02;5.03;;;16.80;99.90;;;;;;5063491;28;20059;-73
2021/08/19 07:18:19;;;;;;;7.93;4.15;;;16.90;99.90;;;;;;5064363;28;20040;-72
2021/08/19 07:20:44;;;;;;;7.40;4.05;;;16.90;99.90;;;;;;5064514;28;20025;-72
2021/08/19 07:23:10;;;;;;;11.48;4.57;;;17.00;99.90;;;;;;5064573;28;20025;-72
2021/08/19 07:25:35;;;;;;;10.10;4.75;;;17.10;99.90;;;;;;5076874;28;20115;-73
2021/08/19 07:28:02;;;;;;;10.45;4.47;;;17.10;99.90;;;;;;5082956;28;20032;-75
2021/08/19 07:30:28;;;;;;;7.28;3.83;;;17.10;99.90;;;;;;5083104;28;20021;-73
2021/08/19 07:32:53;;;;;;;10.77;4.70;;;17.20;99.90;;;;;;5082595;28;20029;-74
2021/08/19 07:35:21;;;;;;;9.55;4.20;;;17.20;99.90;;;;;;5083250;28;20031;-76
2021/08/19 07:37:48;;;;;;;8.43;4.47;;;17.20;99.90;;;;;;5081956;28;20048;-71
2021/08/19 07:40:19;;;;;;;6.68;3.20;;;17.20;99.90;;;;;;5084372;28;20029;-73
2021/08/19 07:42:45;;;;;;;5.88;3.22;;;17.20;99.90;;;;;;5083878;28;20032;-76
2021/08/19 07:45:12;;;;;;;7.28;3.50;;;17.30;99.90;;;;;;5084433;28;20028;-71
2021/08/19 07:47:38;;;;;;;6.82;4.15;;;17.40;99.90;;;;;;5083666;28;20024;-76
2021/08/19 07:50:04;;;;;;;9.13;4.60;;;17.30;99.90;;;;;;5084387;28;20056;-70
2021/08/19 07:52:57;;;;;;;13.32;4.43;;;17.30;99.90;;;;;;5081139;28;20059;-76
2021/08/19 07:55:24;;;;;;;5.97;3.30;;;17.40;99.90;;;;;;5076387;28;20021;-75
2021/08/19 07:57:51;;;;;;;7.00;3.80;;;17.40;99.90;;;;;;5070621;28;20071;-77
2021/08/19 08:00:28;;;;;;;5.95;3.83;;;17.50;99.90;;;;;;5077709;28;20063;-76
2021/08/19 08:02:55;;;;;;;9.98;4.57;;;17.60;99.90;;;;;;5073705;28;20033;-74
2021/08/19 08:05:22;;;;;;;7.15;3.90;;;17.60;99.90;;;;;;5083731;28;20025;-72
2021/08/19 08:07:50;;;;;;;13.20;4.32;;;17.70;99.90;;;;;;5084196;28;20028;-73
2021/08/19 08:10:17;;;;;;;6.30;3.13;;;17.70;99.90;;;;;;5082939;28;20051;-73
2021/08/19 08:12:44;;;;;;;6.78;4.20;;;17.80;99.90;;;;;;5083715;28;20046;-73
2021/08/19 08:15:10;;;;;;;10.80;4.63;;;17.80;99.90;;;;;;5084134;28;20055;-73
2021/08/19 08:17:37;;;;;;;12.88;4.13;;;17.80;99.90;;;;;;5088562;28;20044;-73
2021/08/19 08:20:08;;;;;;;5.22;3.40;;;17.80;99.90;;;;;;5069099;28;20024;-71
2021/08/19 08:22:36;;;;;;;8.05;3.92;;;17.80;99.90;;;;;;5083936;28;20047;-73
2021/08/19 08:25:02;;;;;;;8.05;3.90;;;17.80;99.90;;;;;;5067947;28;20029;-72
2021/08/19 08:27:28;;;;;;;7.15;3.80;;;17.80;99.90;;;;;;5076340;28;20107;-71
2021/08/19 08:29:54;;;;;;;8.18;4.22;;;17.80;99.90;;;;;;5082207;28;20025;-74
2021/08/19 08:32:21;;;;;;;9.98;4.35;;;17.90;99.90;;;;;;5103335;28;20028;-74
2021/08/19 08:34:51;;;;;;;8.13;3.58;;;17.90;99.90;;;;;;5087828;28;20033;-71
2021/08/19 08:37:17;;;;;;;6.43;3.80;;;17.90;99.90;;;;;;5078307;28;20031;-74
2021/08/19 08:39:44;;;;;;;5.80;3.50;;;17.90;99.90;;;;;;5068343;28;20029;-71
2021/08/19 08:42:11;;;;;;;9.65;4.50;;;17.90;99.90;;;;;;5066392;28;20048;-75
2021/08/19 08:44:38;;;;;;;6.65;3.90;;;18.00;99.90;;;;;;5067805;28;20025;-73
2021/08/19 08:47:04;;;;;;;8.07;4.53;;;18.00;99.90;;;;;;5068133;28;20021;-72
2021/08/19 08:49:30;;;;;;;7.68;3.53;;;18.00;99.90;;;;;;5102856;28;20039;-73
2021/08/19 08:51:58;;;;;;;7.88;4.07;;;18.10;99.90;;;;;;5074946;28;20037;-73
2021/08/19 08:54:25;;;;;;;8.60;3.97;;;18.10;99.90;;;;;;5085712;28;20021;-76
2021/08/19 08:56:51;;;;;;;8.50;3.83;;;18.10;99.90;;;;;;5103134;28;20493;-73
2021/08/19 08:59:17;;;;;;;7.43;3.88;;;18.20;99.90;;;;;;5066636;28;20060;-76
2021/08/19 09:01:44;;;;;;;7.03;3.42;;;18.10;99.90;;;;;;5082963;28;20128;-74
2021/08/19 09:04:10;;;;;;;9.90;4.40;;;18.10;99.90;;;;;;5079885;28;20031;-73
2021/08/19 09:06:38;;;;;;;9.00;4.15;;;18.00;99.90;;;;;;5086070;28;20028;-74
2021/08/19 09:09:22;;;;;;;12.70;5.03;;;18.20;99.90;;;;;;5087351;28;20032;-74
2021/08/19 09:11:53;;;;;;;7.03;4.50;;;18.20;99.90;;;;;;5087362;28;20028;-73
2021/08/19 09:14:22;;;;;;;10.40;4.28;;;18.10;99.90;;;;;;5086678;28;20045;-75
2021/08/19 09:16:49;;;;;;;15.15;5.45;;;18.20;99.90;;;;;;5087273;28;20031;-71
2021/08/19 09:19:21;;;;;;;9.77;4.95;;;18.20;99.90;;;;;;5086728;28;20064;-75
2021/08/19 09:21:56;;;;;;;9.40;5.18;;;18.20;99.90;;;;;;5087355;28;20050;-75
2021/08/19 09:24:24;;;;;;;8.50;4.75;;;18.20;99.90;;;;;;5086812;28;20082;-74
2021/08/19 09:26:52;;;;;;;11.95;5.40;;;18.20;99.90;;;;;;5086897;28;20028;-72
2021/08/19 09:29:27;;;;;;;15.60;6.35;;;18.20;99.90;;;;;;5082015;28;20103;-70
2021/08/19 09:31:56;;;;;;;11.55;5.50;;;18.10;99.90;;;;;;5065341;28;20087;-69
2021/08/19 09:34:23;;;;;;;11.05;4.80;;;18.20;99.90;;;;;;5081633;28;20032;-73
2021/08/19 09:37:03;;;;;;;10.20;5.20;;;18.20;99.90;;;;;;5086704;28;20078;-71
2021/08/19 09:39:46;;;;;;;8.73;5.00;;;18.10;99.90;;;;;;5102071;28;20045;-73
2021/08/19 09:42:13;;;;;;;12.63;6.30;;;18.00;99.90;;;;;;5086482;28;20032;-72
2021/08/19 09:44:44;;;;;;;19.13;6.13;;;18.00;99.90;;;;;;5083482;28;20055;-73
2021/08/19 09:47:29;;;;;;;11.13;5.70;;;17.90;99.90;;;;;;5066398;28;20033;-72
2021/08/19 09:50:21;;;;;;;12.90;5.85;;;17.80;99.90;;;;;;5066485;28;20025;-72
2021/08/19 09:52:52;;;;;;;12.77;5.72;;;17.70;99.90;;;;;;5066594;28;20039;-73
2021/08/19 09:55:28;;;;;;;11.35;5.30;;;17.60;99.90;;;;;;5064334;28;20033;-72
2021/08/19 09:57:56;;;;;;;14.25;6.50;;;17.50;99.90;;;;;;5066146;28;20036;-73
2021/08/19 10:00:42;;;;;;;12.50;4.68;;;17.50;99.90;;;;;;5073269;28;20020;-74
2021/08/19 10:03:10;;;;;;;10.50;5.20;;;17.40;99.90;;;;;;5066410;28;20075;-70
2021/08/19 10:05:37;;;;;;;10.45;5.18;;;17.30;99.90;;;;;;5065457;28;20181;-72
2021/08/19 10:08:03;;;;;;;8.32;4.60;;;17.20;99.90;;;;;;5064200;28;20025;-73
2021/08/19 10:10:29;;;;;;;11.95;4.78;;;17.10;99.90;;;;;;5064528;28;20021;-71
2021/08/19 10:12:58;;;;;;;7.75;4.03;;;17.10;99.90;;;;;;5064281;28;20536;-70
2021/08/19 10:15:24;;;;;;;6.68;3.40;;;17.00;99.90;;;;;;5063000;28;20072;-70
2021/08/19 10:17:53;;;;;;;6.47;3.70;;;17.00;99.90;;;;;;5064379;28;20044;-72
2021/08/19 10:20:22;;;;;;;7.78;3.88;;;16.90;99.90;;;;;;5065159;28;20072;-73
2021/08/19 10:22:50;;;;;;;7.93;3.92;;;16.90;99.90;;;;;;5066438;28;20021;-72
2021/08/19 10:25:18;;;;;;;7.57;4.65;;;16.80;99.90;;;;;;5065143;28;20033;-71
2021/08/19 10:27:44;;;;;;;8.52;4.50;;;16.80;99.90;;;;;;5066400;28;20029;-71
2021/08/19 10:30:20;;;;;;;15.02;5.30;;;16.90;99.90;;;;;;5066290;28;20055;-72
2021/08/19 10:32:52;;;;;;;11.60;5.10;;;16.90;99.90;;;;;;5065012;28;20389;-73
2021/08/19 10:35:26;;;;;;;16.75;6.85;;;17.00;99.90;;;;;;5066208;28;20089;-72
2021/08/19 10:37:54;;;;;;;14.13;6.80;;;17.00;99.90;;;;;;5065641;28;20036;-72
2021/08/19 10:40:20;;;;;;;14.07;7.50;;;17.10;99.90;;;;;;5065936;28;20088;-74
2021/08/19 10:42:54;;;;;;;13.95;7.55;;;17.20;99.90;;;;;;5066001;28;20029;-72
2021/08/19 10:45:28;;;;;;;14.97;8.20;;;17.20;99.90;;;;;;5066117;28;20032;-72
2021/08/19 10:48:06;;;;;;;16.73;8.20;;;17.20;99.90;;;;;;5064541;28;20275;-72
2021/08/19 10:50:39;;;;;;;17.65;8.75;;;17.30;99.90;;;;;;5065645;28;20389;-71
2021/08/19 10:53:16;;;;;;;13.83;7.60;;;17.30;99.90;;;;;;5064851;28;20109;-71
2021/08/19 10:55:46;;;;;;;21.48;9.07;;;17.30;99.90;;;;;;5065423;28;20032;-72
2021/08/19 10:58:35;;;;;;;20.55;8.52;;;17.30;99.90;;;;;;5065351;28;20059;-74
2021/08/19 11:01:14;;;;;;;15.63;7.40;;;17.30;99.90;;;;;;5065450;28;20032;-72
2021/08/19 11:03:41;;;;;;;13.18;7.15;;;17.40;99.90;;;;;;5064043;28;20033;-72
2021/08/19 11:06:17;;;;;;;19.45;7.82;;;17.40;99.90;;;;;;5064505;28;20033;-73
2021/08/19 11:08:46;;;;;;;9.68;5.63;;;17.50;99.90;;;;;;5064786;28;20025;-76
2021/08/19 11:11:25;;;;;;;9.60;5.68;;;17.50;99.90;;;;;;5065214;28;20035;-74
2021/08/19 11:14:04;;;;;;;8.77;4.80;;;17.60;99.90;;;;;;5064544;28;20048;-74
2021/08/19 11:16:31;;;;;;;12.18;5.18;;;17.50;99.90;;;;;;5064886;28;20048;-73
2021/08/19 11:19:14;;;;;;;7.20;4.45;;;17.60;99.90;;;;;;5064598;28;20047;-73
2021/08/19 11:21:47;;;;;;;11.48;5.57;;;17.60;99.90;;;;;;5064771;28;20028;-73
2021/08/19 11:24:13;;;;;;;15.07;5.07;;;17.60;99.90;;;;;;5080249;28;20036;-72
2021/08/19 11:26:39;;;;;;;9.85;4.53;;;17.70;99.90;;;;;;5064433;28;20052;-74
2021/08/19 11:29:04;;;;;;;8.05;3.50;;;17.80;99.90;;;;;;5079790;28;20028;-71
2021/08/19 11:31:30;;;;;;;6.53;3.75;;;17.90;99.90;;;;;;5072449;28;20025;-75
2021/08/19 11:34:00;;;;;;;7.38;3.40;;;17.90;99.90;;;;;;5083219;28;20039;-71
2021/08/19 11:36:26;;;;;;;9.38;3.47;;;17.90;99.90;;;;;;5084608;28;20111;-71
2021/08/19 11:39:02;;;;;;;8.27;4.20;;;18.00;99.90;;;;;;5083973;28;20040;-73
2021/08/19 11:41:29;;;;;;;7.15;3.88;;;18.00;99.90;;;;;;5084495;28;20606;-74
2021/08/19 11:44:03;;;;;;;8.68;3.92;;;17.90;99.90;;;;;;5083690;28;20085;-72
2021/08/19 11:46:29;;;;;;;6.60;3.92;;;17.90;99.90;;;;;;5083875;28;20052;-73
2021/08/19 11:48:57;;;;;;;7.35;3.72;;;17.90;99.90;;;;;;5084469;28;20028;-71
2021/08/19 11:51:35;;;;;;;5.65;2.97;;;17.80;99.90;;;;;;5084493;28;20028;-75
2021/08/19 11:54:15;;;;;;;7.63;3.75;;;17.80;99.90;;;;;;5084126;28;20024;-75
2021/08/19 11:56:45;;;;;;;7.90;3.75;;;17.70;99.90;;;;;;5083225;28;20088;-74
2021/08/19 11:59:16;;;;;;;5.80;3.22;;;17.70;99.90;;;;;;5083148;28;20066;-71
2021/08/19 12:01:53;;;;;;;5.60;3.30;;;17.80;99.90;;;;;;5083542;28;20025;-72
2021/08/19 12:04:30;;;;;;;11.00;3.42;;;17.90;99.90;;;;;;5082934;28;20055;-74
2021/08/19 12:06:57;;;;;;;7.53;4.32;;;18.20;99.90;;;;;;5082748;28;20033;-72
2021/08/19 12:09:23;;;;;;;6.97;4.05;;;18.40;99.90;;;;;;5071152;28;20063;-73
2021/08/19 12:11:49;;;;;;;8.15;4.28;;;18.70;99.90;;;;;;5077333;28;20057;-72
2021/08/19 12:14:26;;;;;;;9.10;3.55;;;18.90;99.90;;;;;;5081350;28;20049;-75
2021/08/19 12:16:54;;;;;;;4.88;2.63;;;18.90;99.90;;;;;;5062429;28;20036;-70
2021/08/19 12:19:22;;;;;;;7.00;3.58;;;19.10;99.90;;;;;;5062731;28;20037;-72
2021/08/19 12:21:48;;;;;;;3.97;2.88;;;19.30;99.90;;;;;;5063734;28;20025;-70
2021/08/19 12:24:20;;;;;;;5.75;3.42;;;19.50;99.90;;;;;;5079581;28;20083;-71
2021/08/19 12:27:14;;;;;;;5.60;3.33;;;19.50;99.90;;;;;;5063697;28;20474;-71
2021/08/19 12:29:49;;;;;;;3.10;2.60;;;19.60;99.90;;;;;;5062643;28;20043;-71
2021/08/19 12:32:35;;;;;;;6.75;3.00;;;19.70;99.90;;;;;;5063767;28;20025;-73
2021/08/19 12:35:12;;;;;;;4.25;2.72;;;19.70;99.90;;;;;;5062004;28;20063;-70
2021/08/19 12:37:53;;;;;;;5.53;2.67;;;19.70;99.90;;;;;;5070023;28;20086;-70
2021/08/19 12:40:19;;;;;;;5.50;3.45;;;19.80;99.90;;;;;;5083781;28;20059;-75
2021/08/19 12:42:46;;;;;;;6.75;3.10;;;20.00;99.90;;;;;;5083226;28;20111;-72
2021/08/19 12:45:17;;;;;;;4.28;2.80;;;20.10;99.90;;;;;;5083960;28;20039;-71
2021/08/19 12:47:49;;;;;;;5.30;2.65;;;20.20;99.90;;;;;;5083831;28;20028;-70